ELY5131 LLBG-LCLK
Flight info
| Callsign | ELY5131 |
|---|---|
| Flight time | 0h 36m |
| Altitude | 26000 |
| Route | DAFNA W13 VELOX N131 EMEDA |
| Aircraft | B738/M-SDE2E3FGHIRWXY/LB1 |
Departure
| Time | 2026-05-05 13:32 |
|---|---|
| Airport | Ben Gurion International Airport (LLBG) |
Arrival
| Time | 2026-05-05 14:08 |
|---|---|
| Airport | Larnaca International Airport (LCLK) |
| Time | Latitude | Longitude | Altitude | Speed | Heading |
|---|---|---|---|---|---|
| 2026-05-05 13:32 | 32.06823 | 34.65714 | 8781 ft | 340 kts | 345° |
| 2026-05-05 13:32 | 32.09146 | 34.65055 | 9564 ft | 345 kts | 345° |
| 2026-05-05 13:33 | 32.11495 | 34.64378 | 10413 ft | 348 kts | 344° |
| 2026-05-05 13:33 | 32.13856 | 34.63679 | 11246 ft | 350 kts | 343° |
| 2026-05-05 13:33 | 32.16230 | 34.62955 | 12039 ft | 354 kts | 342° |
| 2026-05-05 13:33 | 32.18620 | 34.62208 | 12825 ft | 357 kts | 342° |
| 2026-05-05 13:34 | 32.21032 | 34.61442 | 13567 ft | 361 kts | 342° |
| 2026-05-05 13:34 | 32.23468 | 34.60658 | 14306 ft | 365 kts | 342° |
| 2026-05-05 13:34 | 32.25905 | 34.59871 | 15017 ft | 368 kts | 341° |
| 2026-05-05 13:34 | 32.28385 | 34.59068 | 15719 ft | 372 kts | 341° |
| 2026-05-05 13:35 | 32.30903 | 34.58249 | 16411 ft | 375 kts | 341° |
| 2026-05-05 13:35 | 32.33440 | 34.57424 | 17060 ft | 379 kts | 341° |
| 2026-05-05 13:35 | 32.36001 | 34.56590 | 17684 ft | 383 kts | 341° |
| 2026-05-05 13:35 | 32.38584 | 34.55748 | 18312 ft | 386 kts | 341° |
| 2026-05-05 13:36 | 32.41163 | 34.54906 | 18921 ft | 390 kts | 341° |
| 2026-05-05 13:36 | 32.43792 | 34.54048 | 19531 ft | 393 kts | 341° |
| 2026-05-05 13:36 | 32.46440 | 34.53183 | 20104 ft | 396 kts | 341° |
| 2026-05-05 13:36 | 32.49077 | 34.52322 | 20715 ft | 397 kts | 341° |
| 2026-05-05 13:37 | 32.51770 | 34.51443 | 21453 ft | 395 kts | 341° |
| 2026-05-05 13:37 | 32.54385 | 34.50589 | 22236 ft | 391 kts | 341° |
| 2026-05-05 13:37 | 32.57003 | 34.49735 | 22977 ft | 388 kts | 341° |
| 2026-05-05 13:37 | 32.59605 | 34.48883 | 23626 ft | 387 kts | 341° |
| 2026-05-05 13:38 | 32.62202 | 34.48032 | 24261 ft | 386 kts | 341° |
| 2026-05-05 13:38 | 32.64790 | 34.47183 | 24919 ft | 385 kts | 341° |
| 2026-05-05 13:38 | 32.67332 | 34.46349 | 25569 ft | 383 kts | 340° |
| 2026-05-05 13:38 | 32.69902 | 34.45504 | 25993 ft | 383 kts | 340° |
| 2026-05-05 13:39 | 32.72454 | 34.44667 | 26000 ft | 379 kts | 340° |
| 2026-05-05 13:39 | 32.75005 | 34.43828 | 26019 ft | 382 kts | 340° |
| 2026-05-05 13:39 | 32.77575 | 34.42982 | 26027 ft | 382 kts | 340° |
| 2026-05-05 13:39 | 32.80144 | 34.42135 | 26029 ft | 383 kts | 340° |
| 2026-05-05 13:40 | 32.82719 | 34.41287 | 26023 ft | 383 kts | 340° |
| 2026-05-05 13:40 | 32.85289 | 34.40440 | 26024 ft | 383 kts | 340° |
| 2026-05-05 13:40 | 32.87826 | 34.39604 | 26021 ft | 382 kts | 340° |
| 2026-05-05 13:40 | 32.90388 | 34.38759 | 26018 ft | 382 kts | 340° |
| 2026-05-05 13:41 | 32.92957 | 34.37912 | 26020 ft | 382 kts | 340° |
| 2026-05-05 13:41 | 32.95519 | 34.37066 | 26020 ft | 381 kts | 340° |
| 2026-05-05 13:41 | 32.98076 | 34.36221 | 26020 ft | 381 kts | 340° |
| 2026-05-05 13:41 | 33.00626 | 34.35379 | 26016 ft | 380 kts | 340° |
| 2026-05-05 13:42 | 33.03153 | 34.34543 | 26018 ft | 380 kts | 340° |
| 2026-05-05 13:42 | 33.05700 | 34.33700 | 26020 ft | 379 kts | 340° |
| 2026-05-05 13:42 | 33.08241 | 34.32858 | 26018 ft | 378 kts | 340° |
| 2026-05-05 13:42 | 33.10785 | 34.32015 | 26017 ft | 378 kts | 340° |
| 2026-05-05 13:43 | 33.13317 | 34.31175 | 26021 ft | 378 kts | 340° |
| 2026-05-05 13:43 | 33.15853 | 34.30333 | 26016 ft | 377 kts | 340° |
| 2026-05-05 13:43 | 33.18380 | 34.29493 | 26018 ft | 377 kts | 340° |
| 2026-05-05 13:43 | 33.20908 | 34.28654 | 26019 ft | 377 kts | 340° |
| 2026-05-05 13:44 | 33.23401 | 34.27825 | 26015 ft | 376 kts | 340° |
| 2026-05-05 13:44 | 33.25928 | 34.26985 | 26012 ft | 376 kts | 340° |
| 2026-05-05 13:44 | 33.28450 | 34.26145 | 26010 ft | 376 kts | 340° |
| 2026-05-05 13:44 | 33.30973 | 34.25304 | 26010 ft | 376 kts | 340° |
| 2026-05-05 13:45 | 33.33493 | 34.24464 | 26011 ft | 376 kts | 339° |
| 2026-05-05 13:45 | 33.36009 | 34.23625 | 26009 ft | 375 kts | 339° |
| 2026-05-05 13:45 | 33.38525 | 34.22786 | 26009 ft | 375 kts | 339° |
| 2026-05-05 13:45 | 33.41043 | 34.21946 | 26011 ft | 375 kts | 339° |
| 2026-05-05 13:46 | 33.43552 | 34.21108 | 26010 ft | 374 kts | 339° |
| 2026-05-05 13:46 | 33.46031 | 34.20279 | 26009 ft | 374 kts | 339° |
| 2026-05-05 13:46 | 33.48534 | 34.19442 | 26009 ft | 373 kts | 339° |
| 2026-05-05 13:46 | 33.51040 | 34.18604 | 26009 ft | 373 kts | 339° |
| 2026-05-05 13:47 | 33.53536 | 34.17768 | 26011 ft | 372 kts | 339° |
| 2026-05-05 13:47 | 33.56038 | 34.16929 | 26008 ft | 372 kts | 339° |
| 2026-05-05 13:47 | 33.58533 | 34.16093 | 26006 ft | 372 kts | 339° |
| 2026-05-05 13:47 | 33.60995 | 34.15267 | 26010 ft | 371 kts | 339° |
| 2026-05-05 13:48 | 33.63481 | 34.14433 | 26005 ft | 371 kts | 339° |
| 2026-05-05 13:48 | 33.65969 | 34.13597 | 26000 ft | 371 kts | 339° |
| 2026-05-05 13:48 | 33.68464 | 34.12759 | 26000 ft | 371 kts | 339° |
| 2026-05-05 13:48 | 33.70946 | 34.11924 | 25877 ft | 372 kts | 339° |
| 2026-05-05 13:49 | 33.73460 | 34.11077 | 25422 ft | 372 kts | 339° |
| 2026-05-05 13:49 | 33.75958 | 34.10236 | 24867 ft | 373 kts | 339° |
| 2026-05-05 13:49 | 33.78460 | 34.09393 | 24297 ft | 373 kts | 339° |
| 2026-05-05 13:49 | 33.80932 | 34.08560 | 23683 ft | 374 kts | 339° |
| 2026-05-05 13:50 | 33.83429 | 34.07649 | 22906 ft | 377 kts | 337° |
| 2026-05-05 13:50 | 33.85926 | 34.06627 | 22204 ft | 379 kts | 336° |
| 2026-05-05 13:50 | 33.88411 | 34.05570 | 21547 ft | 379 kts | 336° |
| 2026-05-05 13:50 | 33.90062 | 34.04863 | 21108 ft | 379 kts | 336° |
| 2026-05-05 13:51 | 33.92556 | 34.03796 | 20427 ft | 380 kts | 336° |
| 2026-05-05 13:51 | 33.95058 | 34.02731 | 19773 ft | 380 kts | 336° |
| 2026-05-05 13:51 | 33.97549 | 34.01679 | 19204 ft | 378 kts | 336° |
| 2026-05-05 13:51 | 34.00033 | 34.00635 | 18658 ft | 375 kts | 336° |
| 2026-05-05 13:52 | 34.02460 | 33.99613 | 18099 ft | 373 kts | 336° |
| 2026-05-05 13:52 | 34.04902 | 33.98588 | 17555 ft | 369 kts | 336° |
| 2026-05-05 13:52 | 34.08139 | 33.97229 | 16830 ft | 367 kts | 336° |
| 2026-05-05 13:52 | 34.09731 | 33.96560 | 16470 ft | 365 kts | 336° |
| 2026-05-05 13:53 | 34.12136 | 33.95548 | 15926 ft | 364 kts | 336° |
| 2026-05-05 13:53 | 34.14520 | 33.94543 | 15388 ft | 362 kts | 336° |
| 2026-05-05 13:53 | 34.16897 | 33.93542 | 14845 ft | 360 kts | 337° |
| 2026-05-05 13:53 | 34.19227 | 33.92560 | 14331 ft | 358 kts | 337° |
| 2026-05-05 13:54 | 34.21576 | 33.91570 | 13798 ft | 355 kts | 337° |
| 2026-05-05 13:54 | 34.23906 | 33.90587 | 13288 ft | 353 kts | 338° |
| 2026-05-05 13:54 | 34.26220 | 33.89610 | 12749 ft | 352 kts | 338° |
| 2026-05-05 13:54 | 34.28520 | 33.88638 | 12237 ft | 350 kts | 338° |
| 2026-05-05 13:55 | 34.30817 | 33.87667 | 11730 ft | 348 kts | 338° |
| 2026-05-05 13:55 | 34.33094 | 33.86704 | 11229 ft | 346 kts | 339° |
| 2026-05-05 13:55 | 34.35358 | 33.85747 | 10889 ft | 339 kts | 339° |
| 2026-05-05 13:55 | 34.37549 | 33.84820 | 10686 ft | 329 kts | 339° |
| 2026-05-05 13:56 | 34.39653 | 33.83930 | 10537 ft | 318 kts | 339° |
| 2026-05-05 13:56 | 34.41710 | 33.83059 | 10396 ft | 307 kts | 339° |
| 2026-05-05 13:56 | 34.43696 | 33.82216 | 10261 ft | 297 kts | 339° |
| 2026-05-05 13:56 | 34.45621 | 33.81401 | 10128 ft | 288 kts | 339° |
| 2026-05-05 13:57 | 34.47480 | 33.80611 | 10025 ft | 279 kts | 339° |
| 2026-05-05 13:57 | 34.49288 | 33.79831 | 9839 ft | 273 kts | 338° |
| 2026-05-05 13:57 | 34.51067 | 33.79038 | 9537 ft | 272 kts | 338° |
| 2026-05-05 13:57 | 34.52816 | 33.78253 | 9249 ft | 270 kts | 338° |
| 2026-05-05 13:58 | 34.54576 | 33.77466 | 8975 ft | 269 kts | 338° |
| 2026-05-05 13:58 | 34.56328 | 33.76682 | 8690 ft | 267 kts | 338° |
| 2026-05-05 13:58 | 34.58071 | 33.75904 | 8416 ft | 266 kts | 338° |
| 2026-05-05 13:58 | 34.59807 | 33.75130 | 8133 ft | 265 kts | 338° |
| 2026-05-05 13:59 | 34.63265 | 33.73585 | 7561 ft | 263 kts | 338° |
| 2026-05-05 13:59 | 34.64988 | 33.72820 | 7265 ft | 263 kts | 338° |
| 2026-05-05 14:00 | 34.68389 | 33.71306 | 6700 ft | 262 kts | 338° |
| 2026-05-05 14:00 | 34.70098 | 33.70546 | 6419 ft | 260 kts | 339° |
| 2026-05-05 14:00 | 34.71847 | 33.70209 | 6125 ft | 262 kts | 5° |
| 2026-05-05 14:00 | 34.73530 | 33.70968 | 5878 ft | 263 kts | 34° |
| 2026-05-05 14:01 | 34.74812 | 33.72538 | 5621 ft | 262 kts | 52° |
| 2026-05-05 14:01 | 34.75865 | 33.74352 | 5344 ft | 261 kts | 51° |
| 2026-05-05 14:01 | 34.77078 | 33.75978 | 5068 ft | 258 kts | 41° |
| 2026-05-05 14:01 | 34.78466 | 33.77356 | 4803 ft | 256 kts | 34° |
| 2026-05-05 14:02 | 34.79947 | 33.78508 | 4527 ft | 254 kts | 27° |
| 2026-05-05 14:02 | 34.81534 | 33.79446 | 4261 ft | 253 kts | 21° |
| 2026-05-05 14:02 | 34.83188 | 33.80146 | 3996 ft | 251 kts | 14° |
| 2026-05-05 14:02 | 34.84885 | 33.80604 | 3732 ft | 249 kts | 7° |
| 2026-05-05 14:03 | 34.86599 | 33.80817 | 3549 ft | 244 kts | 1° |
| 2026-05-05 14:03 | 34.88246 | 33.80791 | 3485 ft | 229 kts | 354° |
| 2026-05-05 14:03 | 34.89779 | 33.80558 | 3382 ft | 215 kts | 348° |
| 2026-05-05 14:03 | 34.91194 | 33.80162 | 3272 ft | 202 kts | 342° |
| 2026-05-05 14:04 | 34.92499 | 33.79647 | 3157 ft | 192 kts | 338° |
| 2026-05-05 14:04 | 34.93727 | 33.79022 | 3038 ft | 193 kts | 333° |
| 2026-05-05 14:04 | 34.94929 | 33.78260 | 2841 ft | 196 kts | 326° |
| 2026-05-05 14:04 | 34.96037 | 33.77276 | 2643 ft | 197 kts | 320° |
| 2026-05-05 14:05 | 34.96882 | 33.76030 | 2396 ft | 194 kts | 286° |
| 2026-05-05 14:05 | 34.96770 | 33.74460 | 2248 ft | 190 kts | 239° |
| 2026-05-05 14:05 | 34.95969 | 33.73189 | 2047 ft | 188 kts | 231° |
| 2026-05-05 14:05 | 34.95154 | 33.71956 | 1814 ft | 184 kts | 229° |
| 2026-05-05 14:06 | 34.94317 | 33.70848 | 1587 ft | 175 kts | 225° |
| 2026-05-05 14:06 | 34.93489 | 33.69836 | 1371 ft | 163 kts | 224° |
| 2026-05-05 14:06 | 34.92700 | 33.68877 | 1204 ft | 156 kts | 224° |
| 2026-05-05 14:06 | 34.91941 | 33.67954 | 1001 ft | 154 kts | 224° |
| 2026-05-05 14:07 | 34.91195 | 33.67046 | 815 ft | 152 kts | 224° |
| 2026-05-05 14:07 | 34.90466 | 33.66157 | 636 ft | 150 kts | 224° |
| 2026-05-05 14:07 | 34.89732 | 33.65260 | 452 ft | 149 kts | 224° |
| 2026-05-05 14:07 | 34.88987 | 33.64363 | 259 ft | 151 kts | 223° |
| 2026-05-05 14:08 | 34.88246 | 33.63456 | 68 ft | 151 kts | 224° |
| 2026-05-05 14:08 | 34.87542 | 33.62596 | 17 ft | 123 kts | 225° |
| 2026-05-05 14:08 | 34.87096 | 33.62053 | 21 ft | 58 kts | 226° |
| 2026-05-05 14:08 | 34.86971 | 33.61795 | 22 ft | 25 kts | 253° |
| 2026-05-05 14:09 | 34.86931 | 33.61608 | 18 ft | 20 kts | 255° |
| 2026-05-05 14:09 | 34.86902 | 33.61474 | 19 ft | 15 kts | 255° |
| 2026-05-05 14:09 | 34.86894 | 33.61370 | 17 ft | 13 kts | 302° |
| 2026-05-05 14:09 | 34.86878 | 33.61286 | 17 ft | 10 kts | 229° |
| 2026-05-05 14:10 | 34.86882 | 33.61238 | 20 ft | 6 kts | 304° |
| 2026-05-05 14:10 | 34.86900 | 33.61215 | 19 ft | 1 kts | 314° |
| 2026-05-05 14:10 | 34.86906 | 33.61208 | 19 ft | 1 kts | 314° |
| 2026-05-05 14:10 | 34.86910 | 33.61202 | 21 ft | 1 kts | 314° |
| 2026-05-05 14:11 | 34.86911 | 33.61201 | 19 ft | 0 kts | 315° |